sensor_id;sensor_type;location;lat;lon;timestamp;P1;durP1;ratioP1;P2;durP2;ratioP2
49852;SDS011;35751;48.072;11.688;2022-12-19T00:01:35;48.50;;;21.63;;
49852;SDS011;35751;48.072;11.688;2022-12-19T00:04:02;54.83;;;20.07;;
49852;SDS011;35751;48.072;11.688;2022-12-19T00:06:29;41.97;;;17.03;;
49852;SDS011;35751;48.072;11.688;2022-12-19T00:08:55;47.83;;;19.10;;
49852;SDS011;35751;48.072;11.688;2022-12-19T00:11:24;50.37;;;19.20;;
49852;SDS011;35751;48.072;11.688;2022-12-19T00:13:50;53.17;;;20.17;;
49852;SDS011;35751;48.072;11.688;2022-12-19T00:16:17;52.87;;;19.77;;
49852;SDS011;35751;48.072;11.688;2022-12-19T00:18:53;48.70;;;19.23;;
49852;SDS011;35751;48.072;11.688;2022-12-19T00:21:20;48.10;;;19.10;;
49852;SDS011;35751;48.072;11.688;2022-12-19T00:23:46;44.90;;;18.87;;
49852;SDS011;35751;48.072;11.688;2022-12-19T00:26:12;42.07;;;16.07;;
49852;SDS011;35751;48.072;11.688;2022-12-19T00:28:40;44.97;;;18.10;;
49852;SDS011;35751;48.072;11.688;2022-12-19T00:31:06;43.27;;;18.87;;
49852;SDS011;35751;48.072;11.688;2022-12-19T00:33:32;49.00;;;18.53;;
49852;SDS011;35751;48.072;11.688;2022-12-19T00:36:01;39.00;;;18.40;;
49852;SDS011;35751;48.072;11.688;2022-12-19T00:38:29;44.37;;;19.30;;
49852;SDS011;35751;48.072;11.688;2022-12-19T00:40:54;39.10;;;17.73;;
49852;SDS011;35751;48.072;11.688;2022-12-19T00:43:20;39.63;;;17.20;;
49852;SDS011;35751;48.072;11.688;2022-12-19T00:45:45;41.90;;;19.90;;
49852;SDS011;35751;48.072;11.688;2022-12-19T00:48:10;45.23;;;19.20;;
49852;SDS011;35751;48.072;11.688;2022-12-19T00:50:36;37.33;;;14.93;;
49852;SDS011;35751;48.072;11.688;2022-12-19T00:53:01;40.80;;;17.80;;
49852;SDS011;35751;48.072;11.688;2022-12-19T00:55:26;45.93;;;19.73;;
49852;SDS011;35751;48.072;11.688;2022-12-19T00:57:52;44.87;;;18.57;;
49852;SDS011;35751;48.072;11.688;2022-12-19T01:00:17;42.43;;;18.57;;
49852;SDS011;35751;48.072;11.688;2022-12-19T01:02:43;48.60;;;19.77;;
49852;SDS011;35751;48.072;11.688;2022-12-19T01:05:09;50.00;;;17.57;;
49852;SDS011;35751;48.072;11.688;2022-12-19T01:07:34;47.57;;;20.17;;
49852;SDS011;35751;48.072;11.688;2022-12-19T01:10:00;42.03;;;17.57;;
49852;SDS011;35751;48.072;11.688;2022-12-19T01:12:25;36.93;;;16.10;;
49852;SDS011;35751;48.072;11.688;2022-12-19T01:15:09;38.07;;;16.70;;
49852;SDS011;35751;48.072;11.688;2022-12-19T01:17:34;44.70;;;17.53;;
49852;SDS011;35751;48.072;11.688;2022-12-19T01:20:00;37.37;;;15.80;;
49852;SDS011;35751;48.072;11.688;2022-12-19T01:22:25;40.47;;;17.13;;
49852;SDS011;35751;48.072;11.688;2022-12-19T01:24:50;40.57;;;17.30;;
49852;SDS011;35751;48.072;11.688;2022-12-19T01:27:16;44.97;;;17.63;;
49852;SDS011;35751;48.072;11.688;2022-12-19T01:29:41;43.13;;;16.83;;
49852;SDS011;35751;48.072;11.688;2022-12-19T01:32:06;39.10;;;16.03;;
49852;SDS011;35751;48.072;11.688;2022-12-19T01:34:32;40.50;;;17.07;;
49852;SDS011;35751;48.072;11.688;2022-12-19T01:36:57;37.23;;;18.30;;
49852;SDS011;35751;48.072;11.688;2022-12-19T01:39:22;42.20;;;15.67;;
49852;SDS011;35751;48.072;11.688;2022-12-19T01:41:48;40.70;;;17.20;;
49852;SDS011;35751;48.072;11.688;2022-12-19T01:44:13;35.00;;;15.47;;
49852;SDS011;35751;48.072;11.688;2022-12-19T01:46:40;35.73;;;18.87;;
49852;SDS011;35751;48.072;11.688;2022-12-19T01:51:48;34.33;;;15.70;;
49852;SDS011;35751;48.072;11.688;2022-12-19T01:54:18;37.10;;;16.67;;
49852;SDS011;35751;48.072;11.688;2022-12-19T01:56:47;39.57;;;17.37;;
49852;SDS011;35751;48.072;11.688;2022-12-19T01:59:19;44.30;;;17.07;;
49852;SDS011;35751;48.072;11.688;2022-12-19T02:01:45;38.43;;;19.37;;
49852;SDS011;35751;48.072;11.688;2022-12-19T02:04:10;36.23;;;17.70;;
49852;SDS011;35751;48.072;11.688;2022-12-19T02:06:37;36.37;;;15.73;;
49852;SDS011;35751;48.072;11.688;2022-12-19T02:09:03;36.23;;;17.63;;
49852;SDS011;35751;48.072;11.688;2022-12-19T02:11:31;35.90;;;16.13;;
49852;SDS011;35751;48.072;11.688;2022-12-19T02:13:57;44.97;;;16.97;;
49852;SDS011;35751;48.072;11.688;2022-12-19T02:21:31;40.27;;;16.37;;
49852;SDS011;35751;48.072;11.688;2022-12-19T02:31:35;35.63;;;17.20;;
49852;SDS011;35751;48.072;11.688;2022-12-19T02:34:11;34.90;;;14.57;;
49852;SDS011;35751;48.072;11.688;2022-12-19T02:36:51;34.50;;;17.73;;
49852;SDS011;35751;48.072;11.688;2022-12-19T02:39:25;33.60;;;15.73;;
49852;SDS011;35751;48.072;11.688;2022-12-19T02:41:56;44.03;;;19.37;;
49852;SDS011;35751;48.072;11.688;2022-12-19T02:44:27;40.20;;;19.13;;
49852;SDS011;35751;48.072;11.688;2022-12-19T02:46:55;36.53;;;16.57;;
49852;SDS011;35751;48.072;11.688;2022-12-19T02:49:22;39.97;;;17.70;;
49852;SDS011;35751;48.072;11.688;2022-12-19T02:51:47;43.90;;;16.33;;
49852;SDS011;35751;48.072;11.688;2022-12-19T02:54:13;39.73;;;18.97;;
49852;SDS011;35751;48.072;11.688;2022-12-19T02:56:41;37.50;;;17.53;;
49852;SDS011;35751;48.072;11.688;2022-12-19T02:59:13;40.93;;;16.10;;
49852;SDS011;35751;48.072;11.688;2022-12-19T03:02:19;42.03;;;18.87;;
49852;SDS011;35751;48.072;11.688;2022-12-19T03:04:56;45.67;;;17.73;;
49852;SDS011;35751;48.072;11.688;2022-12-19T03:10:00;33.83;;;17.47;;
49852;SDS011;35751;48.072;11.688;2022-12-19T03:13:18;40.53;;;18.80;;
49852;SDS011;35751;48.072;11.688;2022-12-19T03:15:43;51.67;;;20.07;;
49852;SDS011;35751;48.072;11.688;2022-12-19T03:18:08;41.93;;;18.27;;
49852;SDS011;35751;48.072;11.688;2022-12-19T03:20:38;44.30;;;18.37;;
49852;SDS011;35751;48.072;11.688;2022-12-19T03:23:06;39.10;;;18.03;;
49852;SDS011;35751;48.072;11.688;2022-12-19T03:25:32;40.87;;;18.20;;
49852;SDS011;35751;48.072;11.688;2022-12-19T03:27:59;43.47;;;18.87;;
49852;SDS011;35751;48.072;11.688;2022-12-19T03:30:27;40.37;;;18.40;;
49852;SDS011;35751;48.072;11.688;2022-12-19T03:32:53;40.10;;;19.93;;
49852;SDS011;35751;48.072;11.688;2022-12-19T03:35:23;45.73;;;18.90;;
49852;SDS011;35751;48.072;11.688;2022-12-19T03:37:51;44.47;;;18.67;;
49852;SDS011;35751;48.072;11.688;2022-12-19T03:40:18;46.87;;;19.20;;
49852;SDS011;35751;48.072;11.688;2022-12-19T03:42:46;41.23;;;20.40;;
49852;SDS011;35751;48.072;11.688;2022-12-19T03:56:55;35.63;;;17.23;;
49852;SDS011;35751;48.072;11.688;2022-12-19T03:59:32;41.43;;;18.37;;
49852;SDS011;35751;48.072;11.688;2022-12-19T04:02:09;38.33;;;17.53;;
49852;SDS011;35751;48.072;11.688;2022-12-19T04:04:37;36.87;;;17.80;;
49852;SDS011;35751;48.072;11.688;2022-12-19T04:07:04;33.50;;;19.80;;
49852;SDS011;35751;48.072;11.688;2022-12-19T04:09:30;42.17;;;19.27;;
49852;SDS011;35751;48.072;11.688;2022-12-19T04:11:57;39.87;;;19.53;;
49852;SDS011;35751;48.072;11.688;2022-12-19T04:14:30;45.87;;;19.70;;
49852;SDS011;35751;48.072;11.688;2022-12-19T04:17:00;41.90;;;20.23;;
49852;SDS011;35751;48.072;11.688;2022-12-19T04:22:18;49.15;;;20.73;;
49852;SDS011;35751;48.072;11.688;2022-12-19T04:24:46;44.07;;;20.23;;
49852;SDS011;35751;48.072;11.688;2022-12-19T04:27:13;53.80;;;21.33;;
49852;SDS011;35751;48.072;11.688;2022-12-19T04:29:39;37.47;;;18.43;;
49852;SDS011;35751;48.072;11.688;2022-12-19T04:32:05;49.40;;;21.27;;
49852;SDS011;35751;48.072;11.688;2022-12-19T04:34:31;48.13;;;21.07;;
49852;SDS011;35751;48.072;11.688;2022-12-19T04:36:57;51.63;;;21.50;;
49852;SDS011;35751;48.072;11.688;2022-12-19T04:39:23;56.93;;;22.10;;
49852;SDS011;35751;48.072;11.688;2022-12-19T04:41:48;44.83;;;21.37;;
49852;SDS011;35751;48.072;11.688;2022-12-19T04:44:13;47.63;;;21.57;;
49852;SDS011;35751;48.072;11.688;2022-12-19T04:46:39;48.57;;;22.47;;
49852;SDS011;35751;48.072;11.688;2022-12-19T04:49:04;47.27;;;20.00;;
49852;SDS011;35751;48.072;11.688;2022-12-19T04:51:30;45.73;;;20.37;;
49852;SDS011;35751;48.072;11.688;2022-12-19T04:53:55;48.60;;;20.57;;
49852;SDS011;35751;48.072;11.688;2022-12-19T04:56:21;53.00;;;23.40;;
49852;SDS011;35751;48.072;11.688;2022-12-19T04:58:46;50.03;;;20.97;;
49852;SDS011;35751;48.072;11.688;2022-12-19T05:01:11;47.50;;;21.93;;
49852;SDS011;35751;48.072;11.688;2022-12-19T05:03:38;49.40;;;20.80;;
49852;SDS011;35751;48.072;11.688;2022-12-19T05:06:13;50.17;;;21.67;;
49852;SDS011;35751;48.072;11.688;2022-12-19T05:08:39;61.13;;;23.52;;
49852;SDS011;35751;48.072;11.688;2022-12-19T05:11:06;57.73;;;23.97;;
49852;SDS011;35751;48.072;11.688;2022-12-19T05:13:32;58.73;;;24.47;;
49852;SDS011;35751;48.072;11.688;2022-12-19T05:15:58;60.83;;;22.63;;
49852;SDS011;35751;48.072;11.688;2022-12-19T05:18:24;57.73;;;24.00;;
49852;SDS011;35751;48.072;11.688;2022-12-19T05:20:50;64.37;;;24.07;;
49852;SDS011;35751;48.072;11.688;2022-12-19T05:23:16;60.37;;;23.13;;
49852;SDS011;35751;48.072;11.688;2022-12-19T05:25:41;61.47;;;22.37;;
49852;SDS011;35751;48.072;11.688;2022-12-19T05:28:06;58.53;;;20.90;;
49852;SDS011;35751;48.072;11.688;2022-12-19T05:30:32;50.40;;;22.87;;
49852;SDS011;35751;48.072;11.688;2022-12-19T05:32:57;52.17;;;20.47;;
49852;SDS011;35751;48.072;11.688;2022-12-19T05:35:23;53.58;;;21.40;;
49852;SDS011;35751;48.072;11.688;2022-12-19T05:37:48;52.13;;;20.87;;
49852;SDS011;35751;48.072;11.688;2022-12-19T05:40:13;53.90;;;22.90;;
49852;SDS011;35751;48.072;11.688;2022-12-19T05:42:39;45.90;;;21.00;;
49852;SDS011;35751;48.072;11.688;2022-12-19T05:45:04;41.30;;;18.07;;
49852;SDS011;35751;48.072;11.688;2022-12-19T05:47:30;52.70;;;22.60;;
49852;SDS011;35751;48.072;11.688;2022-12-19T05:49:56;46.53;;;19.27;;
49852;SDS011;35751;48.072;11.688;2022-12-19T05:52:21;42.78;;;21.58;;
49852;SDS011;35751;48.072;11.688;2022-12-19T05:54:47;50.33;;;20.77;;
49852;SDS011;35751;48.072;11.688;2022-12-19T05:57:12;54.07;;;20.37;;
49852;SDS011;35751;48.072;11.688;2022-12-19T05:59:37;42.47;;;18.03;;
49852;SDS011;35751;48.072;11.688;2022-12-19T06:02:02;47.45;;;20.17;;
49852;SDS011;35751;48.072;11.688;2022-12-19T06:04:28;47.10;;;21.23;;
49852;SDS011;35751;48.072;11.688;2022-12-19T06:06:54;38.05;;;19.13;;
49852;SDS011;35751;48.072;11.688;2022-12-19T06:09:19;49.80;;;21.73;;
49852;SDS011;35751;48.072;11.688;2022-12-19T06:11:44;51.67;;;25.40;;
49852;SDS011;35751;48.072;11.688;2022-12-19T06:14:09;41.53;;;18.23;;
49852;SDS011;35751;48.072;11.688;2022-12-19T06:16:35;75.65;;;36.42;;
49852;SDS011;35751;48.072;11.688;2022-12-19T06:19:00;55.42;;;25.30;;
49852;SDS011;35751;48.072;11.688;2022-12-19T06:21:26;44.83;;;19.83;;
49852;SDS011;35751;48.072;11.688;2022-12-19T06:23:51;42.03;;;18.20;;
49852;SDS011;35751;48.072;11.688;2022-12-19T06:26:19;50.43;;;21.77;;
49852;SDS011;35751;48.072;11.688;2022-12-19T06:28:45;38.93;;;18.37;;
49852;SDS011;35751;48.072;11.688;2022-12-19T06:31:11;43.57;;;20.93;;
49852;SDS011;35751;48.072;11.688;2022-12-19T06:33:36;43.43;;;18.53;;
49852;SDS011;35751;48.072;11.688;2022-12-19T06:38:29;45.28;;;18.60;;
49852;SDS011;35751;48.072;11.688;2022-12-19T06:40:55;44.93;;;18.63;;
49852;SDS011;35751;48.072;11.688;2022-12-19T06:43:39;59.03;;;32.57;;
49852;SDS011;35751;48.072;11.688;2022-12-19T06:46:05;36.83;;;19.70;;
49852;SDS011;35751;48.072;11.688;2022-12-19T06:48:31;41.67;;;19.67;;
49852;SDS011;35751;48.072;11.688;2022-12-19T06:50:57;39.08;;;19.45;;
49852;SDS011;35751;48.072;11.688;2022-12-19T06:53:22;37.75;;;15.65;;
49852;SDS011;35751;48.072;11.688;2022-12-19T06:55:49;39.83;;;17.63;;
49852;SDS011;35751;48.072;11.688;2022-12-19T06:58:15;42.08;;;18.00;;
49852;SDS011;35751;48.072;11.688;2022-12-19T07:00:41;35.25;;;16.85;;
49852;SDS011;35751;48.072;11.688;2022-12-19T07:03:07;35.77;;;17.07;;
49852;SDS011;35751;48.072;11.688;2022-12-19T07:05:35;40.50;;;16.70;;
49852;SDS011;35751;48.072;11.688;2022-12-19T07:08:01;38.03;;;17.33;;
49852;SDS011;35751;48.072;11.688;2022-12-19T07:10:27;36.67;;;18.13;;
49852;SDS011;35751;48.072;11.688;2022-12-19T07:12:53;45.33;;;19.43;;
49852;SDS011;35751;48.072;11.688;2022-12-19T07:15:19;32.67;;;17.00;;
49852;SDS011;35751;48.072;11.688;2022-12-19T07:17:44;40.38;;;17.95;;
49852;SDS011;35751;48.072;11.688;2022-12-19T07:20:10;59.08;;;28.98;;
49852;SDS011;35751;48.072;11.688;2022-12-19T07:22:37;44.90;;;19.20;;
49852;SDS011;35751;48.072;11.688;2022-12-19T07:25:02;34.90;;;17.77;;
49852;SDS011;35751;48.072;11.688;2022-12-19T07:27:28;43.03;;;18.57;;
49852;SDS011;35751;48.072;11.688;2022-12-19T07:29:54;37.72;;;15.75;;
49852;SDS011;35751;48.072;11.688;2022-12-19T07:32:20;39.07;;;15.67;;
49852;SDS011;35751;48.072;11.688;2022-12-19T07:34:46;33.92;;;15.98;;
49852;SDS011;35751;48.072;11.688;2022-12-19T07:37:11;32.22;;;16.40;;
49852;SDS011;35751;48.072;11.688;2022-12-19T07:39:37;29.98;;;14.88;;
49852;SDS011;35751;48.072;11.688;2022-12-19T07:42:02;32.85;;;15.90;;
49852;SDS011;35751;48.072;11.688;2022-12-19T07:44:27;32.42;;;15.88;;
49852;SDS011;35751;48.072;11.688;2022-12-19T07:46:53;34.60;;;15.77;;
49852;SDS011;35751;48.072;11.688;2022-12-19T07:49:18;40.22;;;17.58;;
49852;SDS011;35751;48.072;11.688;2022-12-19T07:51:44;34.63;;;16.52;;
49852;SDS011;35751;48.072;11.688;2022-12-19T07:54:10;34.85;;;15.65;;
49852;SDS011;35751;48.072;11.688;2022-12-19T07:56:35;34.08;;;14.88;;
49852;SDS011;35751;48.072;11.688;2022-12-19T07:59:00;32.45;;;14.57;;
49852;SDS011;35751;48.072;11.688;2022-12-19T08:01:26;26.95;;;14.48;;
49852;SDS011;35751;48.072;11.688;2022-12-19T08:03:51;26.45;;;13.82;;
49852;SDS011;35751;48.072;11.688;2022-12-19T08:06:18;29.65;;;16.13;;
49852;SDS011;35751;48.072;11.688;2022-12-19T08:08:44;28.90;;;12.88;;
49852;SDS011;35751;48.072;11.688;2022-12-19T08:11:11;31.48;;;15.27;;
49852;SDS011;35751;48.072;11.688;2022-12-19T08:13:38;27.27;;;13.50;;
49852;SDS011;35751;48.072;11.688;2022-12-19T08:16:03;34.33;;;15.00;;
49852;SDS011;35751;48.072;11.688;2022-12-19T08:18:29;30.70;;;14.95;;
49852;SDS011;35751;48.072;11.688;2022-12-19T08:20:55;30.27;;;15.35;;
49852;SDS011;35751;48.072;11.688;2022-12-19T08:23:20;28.48;;;14.30;;
49852;SDS011;35751;48.072;11.688;2022-12-19T08:25:46;30.00;;;11.88;;
49852;SDS011;35751;48.072;11.688;2022-12-19T08:28:11;26.17;;;14.57;;
49852;SDS011;35751;48.072;11.688;2022-12-19T08:30:37;26.98;;;11.90;;
49852;SDS011;35751;48.072;11.688;2022-12-19T08:33:04;24.92;;;12.50;;
49852;SDS011;35751;48.072;11.688;2022-12-19T08:35:30;26.33;;;13.82;;
49852;SDS011;35751;48.072;11.688;2022-12-19T08:37:56;47.15;;;21.15;;
49852;SDS011;35751;48.072;11.688;2022-12-19T08:40:21;36.80;;;20.33;;
49852;SDS011;35751;48.072;11.688;2022-12-19T08:42:47;39.17;;;17.77;;
49852;SDS011;35751;48.072;11.688;2022-12-19T08:45:15;25.30;;;11.90;;
49852;SDS011;35751;48.072;11.688;2022-12-19T08:47:41;25.15;;;13.52;;
49852;SDS011;35751;48.072;11.688;2022-12-19T08:50:08;22.60;;;12.25;;
49852;SDS011;35751;48.072;11.688;2022-12-19T08:52:34;23.50;;;11.20;;
49852;SDS011;35751;48.072;11.688;2022-12-19T08:54:59;22.00;;;12.45;;
49852;SDS011;35751;48.072;11.688;2022-12-19T08:57:26;21.33;;;12.55;;
49852;SDS011;35751;48.072;11.688;2022-12-19T08:59:51;20.23;;;11.05;;
49852;SDS011;35751;48.072;11.688;2022-12-19T09:02:16;26.08;;;12.30;;
49852;SDS011;35751;48.072;11.688;2022-12-19T09:04:45;21.38;;;12.52;;
49852;SDS011;35751;48.072;11.688;2022-12-19T09:07:11;29.40;;;12.95;;
49852;SDS011;35751;48.072;11.688;2022-12-19T09:09:37;26.38;;;14.15;;
49852;SDS011;35751;48.072;11.688;2022-12-19T09:12:03;30.92;;;13.75;;
49852;SDS011;35751;48.072;11.688;2022-12-19T09:14:31;22.48;;;12.77;;
49852;SDS011;35751;48.072;11.688;2022-12-19T09:16:58;17.00;;;10.30;;
49852;SDS011;35751;48.072;11.688;2022-12-19T09:19:24;19.15;;;10.02;;
49852;SDS011;35751;48.072;11.688;2022-12-19T09:21:52;19.42;;;8.93;;
49852;SDS011;35751;48.072;11.688;2022-12-19T09:24:18;14.80;;;8.60;;
49852;SDS011;35751;48.072;11.688;2022-12-19T09:26:44;14.45;;;7.82;;
49852;SDS011;35751;48.072;11.688;2022-12-19T09:29:10;13.40;;;8.52;;
49852;SDS011;35751;48.072;11.688;2022-12-19T09:31:36;15.95;;;8.70;;
49852;SDS011;35751;48.072;11.688;2022-12-19T09:34:02;14.90;;;7.90;;
49852;SDS011;35751;48.072;11.688;2022-12-19T09:36:27;14.55;;;9.52;;
49852;SDS011;35751;48.072;11.688;2022-12-19T09:38:53;19.15;;;8.18;;
49852;SDS011;35751;48.072;11.688;2022-12-19T09:49:19;15.68;;;8.50;;
49852;SDS011;35751;48.072;11.688;2022-12-19T09:54:42;15.55;;;8.80;;
49852;SDS011;35751;48.072;11.688;2022-12-19T10:00:00;14.05;;;7.03;;
49852;SDS011;35751;48.072;11.688;2022-12-19T10:05:40;13.25;;;7.85;;
49852;SDS011;35751;48.072;11.688;2022-12-19T10:08:20;13.98;;;6.78;;
49852;SDS011;35751;48.072;11.688;2022-12-19T10:10:58;12.32;;;6.55;;
49852;SDS011;35751;48.072;11.688;2022-12-19T10:21:47;13.32;;;7.45;;
49852;SDS011;35751;48.072;11.688;2022-12-19T10:29:47;12.60;;;7.30;;
49852;SDS011;35751;48.072;11.688;2022-12-19T10:35:01;13.18;;;7.20;;
49852;SDS011;35751;48.072;11.688;2022-12-19T10:37:32;13.45;;;8.40;;
49852;SDS011;35751;48.072;11.688;2022-12-19T10:45:48;14.13;;;7.32;;
49852;SDS011;35751;48.072;11.688;2022-12-19T10:48:20;13.35;;;6.65;;
49852;SDS011;35751;48.072;11.688;2022-12-19T10:50:46;9.20;;;5.80;;
49852;SDS011;35751;48.072;11.688;2022-12-19T10:53:14;11.63;;;6.38;;
49852;SDS011;35751;48.072;11.688;2022-12-19T10:58:20;9.75;;;5.95;;
49852;SDS011;35751;48.072;11.688;2022-12-19T11:01:04;14.85;;;9.50;;
49852;SDS011;35751;48.072;11.688;2022-12-19T11:03:31;13.55;;;7.40;;
49852;SDS011;35751;48.072;11.688;2022-12-19T11:05:57;14.43;;;6.80;;
49852;SDS011;35751;48.072;11.688;2022-12-19T11:08:27;13.98;;;8.02;;
49852;SDS011;35751;48.072;11.688;2022-12-19T11:11:16;15.75;;;7.70;;
49852;SDS011;35751;48.072;11.688;2022-12-19T11:13:43;14.73;;;8.38;;
49852;SDS011;35751;48.072;11.688;2022-12-19T11:16:12;16.15;;;7.80;;
49852;SDS011;35751;48.072;11.688;2022-12-19T11:18:46;13.65;;;7.88;;
49852;SDS011;35751;48.072;11.688;2022-12-19T11:26:25;13.50;;;7.78;;
49852;SDS011;35751;48.072;11.688;2022-12-19T11:29:00;14.80;;;9.20;;
49852;SDS011;35751;48.072;11.688;2022-12-19T11:31:28;14.88;;;9.27;;
49852;SDS011;35751;48.072;11.688;2022-12-19T11:34:01;13.45;;;9.32;;
49852;SDS011;35751;48.072;11.688;2022-12-19T11:36:32;15.27;;;9.05;;
49852;SDS011;35751;48.072;11.688;2022-12-19T11:39:02;19.40;;;10.30;;
49852;SDS011;35751;48.072;11.688;2022-12-19T11:41:38;23.27;;;12.98;;
49852;SDS011;35751;48.072;11.688;2022-12-19T11:49:48;21.83;;;12.25;;
49852;SDS011;35751;48.072;11.688;2022-12-19T11:55:29;20.63;;;11.88;;
49852;SDS011;35751;48.072;11.688;2022-12-19T11:58:07;21.48;;;11.43;;
49852;SDS011;35751;48.072;11.688;2022-12-19T12:00:34;17.20;;;11.30;;
49852;SDS011;35751;48.072;11.688;2022-12-19T12:05:46;17.85;;;9.48;;
49852;SDS011;35751;48.072;11.688;2022-12-19T12:10:55;17.55;;;9.77;;
49852;SDS011;35751;48.072;11.688;2022-12-19T12:13:31;20.13;;;13.07;;
49852;SDS011;35751;48.072;11.688;2022-12-19T12:16:12;18.20;;;10.20;;
49852;SDS011;35751;48.072;11.688;2022-12-19T12:21:28;18.27;;;10.95;;
49852;SDS011;35751;48.072;11.688;2022-12-19T12:29:20;15.82;;;10.70;;
49852;SDS011;35751;48.072;11.688;2022-12-19T12:32:03;16.00;;;9.70;;
49852;SDS011;35751;48.072;11.688;2022-12-19T12:35:05;17.83;;;10.77;;
49852;SDS011;35751;48.072;11.688;2022-12-19T12:45:42;17.17;;;11.35;;
49852;SDS011;35751;48.072;11.688;2022-12-19T12:50:55;18.30;;;10.48;;
49852;SDS011;35751;48.072;11.688;2022-12-19T12:53:27;20.83;;;13.02;;
49852;SDS011;35751;48.072;11.688;2022-12-19T12:55:58;23.35;;;12.35;;
49852;SDS011;35751;48.072;11.688;2022-12-19T13:01:15;16.40;;;9.82;;
49852;SDS011;35751;48.072;11.688;2022-12-19T13:11:39;19.92;;;10.93;;
49852;SDS011;35751;48.072;11.688;2022-12-19T13:17:04;22.98;;;14.90;;
49852;SDS011;35751;48.072;11.688;2022-12-19T13:19:38;24.45;;;13.77;;
49852;SDS011;35751;48.072;11.688;2022-12-19T13:24:57;24.73;;;12.02;;
49852;SDS011;35751;48.072;11.688;2022-12-19T13:32:24;21.27;;;11.27;;
49852;SDS011;35751;48.072;11.688;2022-12-19T13:40:13;18.38;;;9.52;;
49852;SDS011;35751;48.072;11.688;2022-12-19T13:51:28;15.02;;;10.55;;
49852;SDS011;35751;48.072;11.688;2022-12-19T13:54:29;21.98;;;14.63;;
49852;SDS011;35751;48.072;11.688;2022-12-19T13:57:00;17.63;;;11.13;;
49852;SDS011;35751;48.072;11.688;2022-12-19T13:59:26;14.23;;;8.65;;
49852;SDS011;35751;48.072;11.688;2022-12-19T14:01:53;18.05;;;10.52;;
49852;SDS011;35751;48.072;11.688;2022-12-19T14:07:05;18.20;;;10.07;;
49852;SDS011;35751;48.072;11.688;2022-12-19T14:09:41;18.55;;;11.07;;
49852;SDS011;35751;48.072;11.688;2022-12-19T14:12:11;20.90;;;9.57;;
49852;SDS011;35751;48.072;11.688;2022-12-19T14:15:18;16.30;;;10.18;;
49852;SDS011;35751;48.072;11.688;2022-12-19T14:17:46;15.10;;;9.35;;
49852;SDS011;35751;48.072;11.688;2022-12-19T14:20:17;16.45;;;8.85;;
49852;SDS011;35751;48.072;11.688;2022-12-19T14:22:54;14.30;;;8.45;;
49852;SDS011;35751;48.072;11.688;2022-12-19T14:25:21;16.10;;;9.18;;
49852;SDS011;35751;48.072;11.688;2022-12-19T14:28:06;17.52;;;9.73;;
49852;SDS011;35751;48.072;11.688;2022-12-19T14:30:37;15.68;;;8.75;;
49852;SDS011;35751;48.072;11.688;2022-12-19T14:33:15;16.42;;;9.25;;
49852;SDS011;35751;48.072;11.688;2022-12-19T14:35:44;16.05;;;9.10;;
49852;SDS011;35751;48.072;11.688;2022-12-19T14:38:14;17.33;;;10.20;;
49852;SDS011;35751;48.072;11.688;2022-12-19T14:40:45;17.27;;;9.07;;
49852;SDS011;35751;48.072;11.688;2022-12-19T14:46:08;18.33;;;10.27;;
49852;SDS011;35751;48.072;11.688;2022-12-19T14:48:54;19.38;;;10.68;;
49852;SDS011;35751;48.072;11.688;2022-12-19T15:01:53;20.33;;;12.68;;
49852;SDS011;35751;48.072;11.688;2022-12-19T15:04:23;23.33;;;13.27;;
49852;SDS011;35751;48.072;11.688;2022-12-19T15:06:52;23.08;;;12.50;;
49852;SDS011;35751;48.072;11.688;2022-12-19T15:09:19;18.85;;;10.20;;
49852;SDS011;35751;48.072;11.688;2022-12-19T15:11:45;17.45;;;11.10;;
49852;SDS011;35751;48.072;11.688;2022-12-19T15:17:26;22.33;;;11.23;;
49852;SDS011;35751;48.072;11.688;2022-12-19T15:19:52;20.58;;;10.73;;
49852;SDS011;35751;48.072;11.688;2022-12-19T15:22:18;18.90;;;12.55;;
49852;SDS011;35751;48.072;11.688;2022-12-19T15:24:44;25.08;;;13.60;;
49852;SDS011;35751;48.072;11.688;2022-12-19T15:27:13;20.13;;;12.40;;
49852;SDS011;35751;48.072;11.688;2022-12-19T15:29:40;18.02;;;10.90;;
49852;SDS011;35751;48.072;11.688;2022-12-19T15:32:13;17.17;;;10.65;;
49852;SDS011;35751;48.072;11.688;2022-12-19T15:34:40;15.20;;;8.98;;
49852;SDS011;35751;48.072;11.688;2022-12-19T15:37:10;14.73;;;9.18;;
49852;SDS011;35751;48.072;11.688;2022-12-19T15:39:36;18.27;;;11.07;;
49852;SDS011;35751;48.072;11.688;2022-12-19T15:42:02;16.38;;;10.80;;
49852;SDS011;35751;48.072;11.688;2022-12-19T15:44:30;19.90;;;11.60;;
49852;SDS011;35751;48.072;11.688;2022-12-19T15:46:58;18.95;;;10.80;;
49852;SDS011;35751;48.072;11.688;2022-12-19T15:49:24;19.17;;;12.45;;
49852;SDS011;35751;48.072;11.688;2022-12-19T15:51:50;17.77;;;11.70;;
49852;SDS011;35751;48.072;11.688;2022-12-19T15:54:16;24.17;;;14.00;;
49852;SDS011;35751;48.072;11.688;2022-12-19T15:56:47;24.15;;;14.57;;
49852;SDS011;35751;48.072;11.688;2022-12-19T15:59:24;23.05;;;12.70;;
49852;SDS011;35751;48.072;11.688;2022-12-19T16:01:52;21.35;;;12.48;;
49852;SDS011;35751;48.072;11.688;2022-12-19T16:04:18;22.17;;;13.18;;
49852;SDS011;35751;48.072;11.688;2022-12-19T16:06:44;20.70;;;11.73;;
49852;SDS011;35751;48.072;11.688;2022-12-19T16:09:20;20.67;;;12.57;;
49852;SDS011;35751;48.072;11.688;2022-12-19T16:11:47;28.33;;;16.55;;
49852;SDS011;35751;48.072;11.688;2022-12-19T16:14:14;21.92;;;13.60;;
49852;SDS011;35751;48.072;11.688;2022-12-19T16:16:39;21.98;;;13.95;;
49852;SDS011;35751;48.072;11.688;2022-12-19T16:19:25;24.13;;;13.73;;
49852;SDS011;35751;48.072;11.688;2022-12-19T16:21:55;18.80;;;12.15;;
49852;SDS011;35751;48.072;11.688;2022-12-19T16:24:21;18.52;;;13.18;;
49852;SDS011;35751;48.072;11.688;2022-12-19T16:26:52;27.15;;;14.30;;
49852;SDS011;35751;48.072;11.688;2022-12-19T16:29:19;29.45;;;15.73;;
49852;SDS011;35751;48.072;11.688;2022-12-19T16:31:52;27.40;;;14.50;;
49852;SDS011;35751;48.072;11.688;2022-12-19T16:34:19;30.40;;;18.80;;
49852;SDS011;35751;48.072;11.688;2022-12-19T16:36:46;32.85;;;18.60;;
49852;SDS011;35751;48.072;11.688;2022-12-19T16:39:12;33.20;;;19.13;;
49852;SDS011;35751;48.072;11.688;2022-12-19T16:41:38;29.23;;;19.48;;
49852;SDS011;35751;48.072;11.688;2022-12-19T16:44:08;30.25;;;19.10;;
49852;SDS011;35751;48.072;11.688;2022-12-19T16:46:39;22.58;;;16.10;;
49852;SDS011;35751;48.072;11.688;2022-12-19T16:49:07;27.27;;;16.30;;
49852;SDS011;35751;48.072;11.688;2022-12-19T16:51:36;28.95;;;17.05;;
49852;SDS011;35751;48.072;11.688;2022-12-19T16:54:02;35.15;;;19.95;;
49852;SDS011;35751;48.072;11.688;2022-12-19T16:56:29;31.00;;;18.80;;
49852;SDS011;35751;48.072;11.688;2022-12-19T16:58:57;51.03;;;31.00;;
49852;SDS011;35751;48.072;11.688;2022-12-19T17:01:26;47.20;;;27.15;;
49852;SDS011;35751;48.072;11.688;2022-12-19T17:03:51;40.00;;;24.63;;
49852;SDS011;35751;48.072;11.688;2022-12-19T17:06:18;42.17;;;22.35;;
49852;SDS011;35751;48.072;11.688;2022-12-19T17:08:44;49.92;;;26.98;;